Time;durP1;ratioP1;P1;durP2;ratioP2;P2;SDS_P1;SDS_P2;PMS_P1;PMS_P2;Temp;Humidity;BMP_temperature;BMP_pressure;BME280_temperature;BME280_humidity;BME280_pressure;Samples;Min_cycle;Max_cycle;Signal;HPM_P1;HPM_P2
2024/04/15 00:00:19;;;;;;;4.97;1.23;;;9.50;99.90;;;;;;5447910;26;20003;-92
2024/04/15 00:02:45;;;;;;;8.95;1.58;;;9.50;99.90;;;;;;5417066;26;20038;-92
2024/04/15 00:05:10;;;;;;;12.35;3.38;;;9.50;99.90;;;;;;5429376;26;20026;-92
2024/04/15 00:07:36;;;;;;;11.65;2.25;;;9.60;99.90;;;;;;5421346;26;20011;-91
2024/04/15 00:10:03;;;;;;;6.85;1.35;;;9.60;99.90;;;;;;5448266;26;20074;-92
2024/04/15 00:12:29;;;;;;;8.15;1.20;;;9.50;99.90;;;;;;5448419;26;20837;-92
2024/04/15 00:14:54;;;;;;;5.90;1.20;;;9.50;99.90;;;;;;5387428;26;20018;-92
2024/04/15 00:17:20;;;;;;;5.75;1.50;;;9.40;99.90;;;;;;5416417;26;20007;-92
2024/04/15 00:19:46;;;;;;;5.03;1.20;;;9.40;99.90;;;;;;5414225;26;20022;-91
2024/04/15 00:22:12;;;;;;;9.85;1.75;;;9.40;99.90;;;;;;5438002;26;20003;-91
2024/04/15 00:24:39;;;;;;;11.45;2.08;;;9.40;99.90;;;;;;5425657;26;20476;-92
2024/04/15 00:27:04;;;;;;;13.70;3.28;;;9.40;99.90;;;;;;5438389;26;20020;-91
2024/04/15 00:29:30;;;;;;;4.35;1.20;;;9.40;99.90;;;;;;5422779;26;20019;-92
2024/04/15 00:31:56;;;;;;;9.05;1.90;;;9.40;99.90;;;;;;5444788;26;20021;-91
2024/04/15 00:34:22;;;;;;;12.40;1.70;;;9.40;99.90;;;;;;5416853;26;20049;-92
2024/04/15 00:36:47;;;;;;;4.82;1.40;;;9.30;99.90;;;;;;5421498;26;20018;-92
2024/04/15 00:39:13;;;;;;;10.00;1.92;;;9.30;99.90;;;;;;5444565;26;20027;-91
2024/04/15 00:41:39;;;;;;;12.75;2.40;;;9.20;99.90;;;;;;5412427;26;20015;-91
2024/04/15 00:44:05;;;;;;;11.95;4.65;;;9.20;99.90;;;;;;5416763;26;20458;-92
2024/04/15 00:46:31;;;;;;;4.68;1.48;;;9.30;99.90;;;;;;5416151;26;20019;-91
2024/04/15 00:48:58;;;;;;;7.78;1.63;;;9.20;99.90;;;;;;5414308;26;20007;-91
2024/04/15 00:51:25;;;;;;;10.63;3.13;;;9.20;99.90;;;;;;5414538;26;20463;-92
2024/04/15 00:53:52;;;;;;;5.03;1.42;;;9.30;99.90;;;;;;5416342;26;20019;-92
2024/04/15 00:56:24;;;;;;;9.30;1.08;;;9.20;99.90;;;;;;5424932;26;20010;-91
2024/04/15 00:58:51;;;;;;;6.28;1.65;;;9.10;99.90;;;;;;5428780;26;20006;-92
2024/04/15 01:01:17;;;;;;;8.77;2.50;;;9.10;99.90;;;;;;5415741;26;20038;-91
2024/04/15 01:03:43;;;;;;;3.75;1.45;;;9.00;99.90;;;;;;5448291;26;20007;-91
2024/04/15 01:06:09;;;;;;;4.85;1.60;;;9.00;99.90;;;;;;5416423;26;20026;-92
2024/04/15 01:08:35;;;;;;;7.60;1.30;;;9.00;99.90;;;;;;5420561;26;20008;-91
2024/04/15 01:11:21;;;;;;;5.30;1.25;;;8.90;99.90;;;;;;5419822;26;20007;-92
2024/04/15 01:13:47;;;;;;;7.85;1.67;;;8.90;99.90;;;;;;5429461;26;20006;-92
2024/04/15 01:16:12;;;;;;;6.20;1.65;;;8.90;99.90;;;;;;5416324;26;20035;-91
2024/04/15 01:18:38;;;;;;;4.95;1.20;;;8.80;99.90;;;;;;5447547;26;20095;-92
2024/04/15 01:21:04;;;;;;;11.40;1.63;;;8.80;99.90;;;;;;5435364;26;20011;-91
2024/04/15 01:23:35;;;;;;;5.13;1.75;;;8.80;99.90;;;;;;5386341;26;20007;-91
2024/04/15 01:26:02;;;;;;;8.43;2.53;;;8.70;99.90;;;;;;5414204;26;20032;-92
2024/04/15 01:28:29;;;;;;;6.05;1.55;;;8.70;99.90;;;;;;5415198;26;20003;-91
2024/04/15 01:30:55;;;;;;;5.43;1.45;;;8.70;99.90;;;;;;5415130;26;20358;-91
2024/04/15 01:33:21;;;;;;;11.25;1.80;;;8.60;99.90;;;;;;5414855;26;20002;-91
2024/04/15 01:35:46;;;;;;;12.65;3.53;;;8.60;99.90;;;;;;5414148;26;20022;-91
2024/04/15 01:38:12;;;;;;;7.88;2.65;;;8.70;99.90;;;;;;5384830;26;20091;-90
2024/04/15 01:40:39;;;;;;;14.13;3.78;;;8.70;99.90;;;;;;5446568;26;20007;-91
2024/04/15 01:43:05;;;;;;;10.10;1.90;;;8.70;99.90;;;;;;5420225;26;20478;-91
2024/04/15 01:45:32;;;;;;;3.92;1.30;;;8.70;99.90;;;;;;5415680;26;20073;-90
2024/04/15 01:47:58;;;;;;;5.65;1.77;;;8.70;99.90;;;;;;5415418;26;20425;-90
2024/04/15 01:50:24;;;;;;;4.25;1.50;;;8.60;99.90;;;;;;5415079;26;20007;-92
2024/04/15 01:52:50;;;;;;;6.05;1.42;;;8.60;99.90;;;;;;5415607;26;20063;-91
2024/04/15 01:55:16;;;;;;;7.63;1.73;;;8.60;99.90;;;;;;5415711;26;20018;-92
2024/04/15 01:57:42;;;;;;;6.18;1.50;;;8.50;99.90;;;;;;5411717;26;20007;-91
2024/04/15 02:00:08;;;;;;;8.57;1.02;;;8.50;99.90;;;;;;5419533;26;20366;-91
2024/04/15 02:02:34;;;;;;;9.85;2.05;;;8.50;99.90;;;;;;5417895;26;20079;-92
2024/04/15 02:05:01;;;;;;;5.10;1.60;;;8.50;99.90;;;;;;5416204;26;20006;-92
2024/04/15 02:07:27;;;;;;;7.68;2.25;;;8.50;99.90;;;;;;5444533;26;20017;-91
2024/04/15 02:09:53;;;;;;;12.27;2.22;;;8.40;99.90;;;;;;5445942;26;20002;-92
2024/04/15 02:12:19;;;;;;;7.75;1.92;;;8.40;99.90;;;;;;5417899;26;20015;-92
2024/04/15 02:14:45;;;;;;;4.15;1.45;;;8.40;99.90;;;;;;5413687;26;20003;-92
2024/04/15 02:17:11;;;;;;;4.63;1.83;;;8.40;99.90;;;;;;5410722;26;20023;-91
2024/04/15 02:19:38;;;;;;;9.95;1.92;;;8.30;99.90;;;;;;5411548;26;20007;-91
2024/04/15 02:22:04;;;;;;;10.02;1.95;;;8.30;99.90;;;;;;5413416;26;20018;-92
2024/04/15 02:24:30;;;;;;;8.48;1.60;;;8.20;99.90;;;;;;5420715;26;20466;-92
2024/04/15 02:26:56;;;;;;;4.63;1.70;;;8.20;99.90;;;;;;5413199;26;20036;-91
2024/04/15 02:29:22;;;;;;;6.82;1.92;;;8.20;99.90;;;;;;5445538;26;20006;-92
2024/04/15 02:31:48;;;;;;;9.73;2.20;;;8.10;99.90;;;;;;5445845;26;20479;-91
2024/04/15 02:34:17;;;;;;;5.38;1.80;;;8.10;99.90;;;;;;5442887;26;20014;-92
2024/04/15 02:36:42;;;;;;;5.50;1.40;;;8.10;99.90;;;;;;5423194;26;20031;-92
2024/04/15 02:39:08;;;;;;;9.40;2.17;;;8.10;99.90;;;;;;5413972;26;20002;-93
2024/04/15 02:41:34;;;;;;;5.60;1.50;;;8.00;99.90;;;;;;5413717;26;20003;-92
2024/04/15 02:44:00;;;;;;;6.35;1.60;;;8.00;99.90;;;;;;5444998;26;20374;-90
2024/04/15 02:46:25;;;;;;;6.32;1.80;;;8.00;99.90;;;;;;5445467;26;20031;-91
2024/04/15 02:48:51;;;;;;;7.00;1.48;;;8.00;99.90;;;;;;5445549;26;20003;-91
2024/04/15 02:51:17;;;;;;;6.55;1.67;;;8.00;99.90;;;;;;5413489;26;20003;-92
2024/04/15 02:53:43;;;;;;;8.75;2.17;;;8.00;99.90;;;;;;5445564;26;20006;-91
2024/04/15 02:56:08;;;;;;;7.43;1.65;;;8.00;99.90;;;;;;5428159;26;20007;-91
2024/04/15 02:58:34;;;;;;;5.97;1.85;;;7.90;99.90;;;;;;5418191;26;20455;-91
2024/04/15 03:01:00;;;;;;;5.20;1.25;;;7.90;99.90;;;;;;5472369;26;20064;-92
2024/04/15 03:03:26;;;;;;;3.38;1.30;;;7.90;99.90;;;;;;5415091;26;20017;-91
2024/04/15 03:06:12;;;;;;;9.15;1.85;;;7.90;99.90;;;;;;5395773;26;20471;-91
2024/04/15 03:08:39;;;;;;;6.90;2.35;;;8.00;99.90;;;;;;5417765;26;20039;-91
2024/04/15 03:11:11;;;;;;;4.32;1.40;;;8.00;99.90;;;;;;5412377;26;20072;-91
2024/04/15 03:13:37;;;;;;;7.57;2.03;;;8.00;99.90;;;;;;5412441;26;20076;-91
2024/04/15 03:16:23;;;;;;;5.15;1.55;;;8.00;99.90;;;;;;5438065;26;20067;-92
2024/04/15 03:18:49;;;;;;;10.90;1.50;;;8.00;99.90;;;;;;5412541;26;20514;-91
2024/04/15 03:21:14;;;;;;;4.78;1.88;;;8.00;99.90;;;;;;5411755;26;20470;-91
2024/04/15 03:23:58;;;;;;;6.00;1.67;;;8.00;99.90;;;;;;5443330;26;20470;-92
2024/04/15 03:26:24;;;;;;;9.50;1.70;;;8.00;99.90;;;;;;5382393;26;20007;-92
2024/04/15 03:28:50;;;;;;;6.20;1.70;;;8.00;99.90;;;;;;5417876;26;20002;-92
2024/04/15 03:31:16;;;;;;;8.98;2.20;;;8.00;99.90;;;;;;5412551;26;20003;-91
2024/04/15 03:33:42;;;;;;;3.67;1.10;;;8.10;99.90;;;;;;5421767;26;20467;-91
2024/04/15 03:36:08;;;;;;;7.63;1.73;;;8.00;99.90;;;;;;5412306;26;20079;-91
2024/04/15 03:38:34;;;;;;;6.05;1.50;;;8.00;99.90;;;;;;5411137;26;20364;-91
2024/04/15 03:41:00;;;;;;;2.63;0.93;;;8.10;99.90;;;;;;5411103;26;20043;-92
2024/04/15 03:43:34;;;;;;;7.45;2.83;;;8.10;99.90;;;;;;5419866;26;20028;-91
2024/04/15 03:46:00;;;;;;;3.70;1.40;;;8.00;99.90;;;;;;5473455;26;20011;-91
2024/04/15 03:48:26;;;;;;;7.60;2.13;;;8.00;99.90;;;;;;5412148;26;20025;-91
2024/04/15 03:51:12;;;;;;;8.20;1.70;;;8.00;99.90;;;;;;5391467;26;20475;-92
2024/04/15 03:53:38;;;;;;;8.50;1.45;;;8.00;99.90;;;;;;5423327;26;20135;-92
2024/04/15 03:56:04;;;;;;;7.55;1.70;;;8.00;99.90;;;;;;5413598;26;20131;-91
2024/04/15 03:58:49;;;;;;;8.98;1.85;;;8.00;99.90;;;;;;5444185;26;20003;-91
2024/04/15 04:01:15;;;;;;;4.10;1.73;;;8.00;99.90;;;;;;5444116;26;20006;-91
2024/04/15 04:03:42;;;;;;;8.35;1.80;;;8.00;99.90;;;;;;5412744;26;20003;-91
2024/04/15 04:06:07;;;;;;;5.32;1.48;;;8.00;99.90;;;;;;5413858;26;20079;-91
2024/04/15 04:08:34;;;;;;;5.78;1.38;;;8.00;99.90;;;;;;5412812;26;20003;-91
2024/04/15 04:11:22;;;;;;;7.15;1.30;;;8.10;99.90;;;;;;5416488;26;20022;-91
2024/04/15 04:13:47;;;;;;;4.35;1.48;;;8.00;99.90;;;;;;5443598;26;20014;-90
2024/04/15 04:16:13;;;;;;;3.67;1.33;;;8.00;99.90;;;;;;5421681;26;20463;-91
2024/04/15 04:18:39;;;;;;;7.43;2.53;;;8.10;99.90;;;;;;5411991;26;20052;-91
2024/04/15 04:21:25;;;;;;;4.63;1.65;;;8.10;99.90;;;;;;5400441;26;20513;-92
2024/04/15 04:23:57;;;;;;;5.18;1.08;;;8.00;99.90;;;;;;5444357;26;20470;-91
2024/04/15 04:26:23;;;;;;;7.85;1.98;;;8.10;99.90;;;;;;5415369;26;20003;-91
2024/04/15 04:28:48;;;;;;;5.22;1.05;;;8.10;99.90;;;;;;5418192;26;20421;-91
2024/04/15 04:31:17;;;;;;;4.95;1.08;;;8.10;99.90;;;;;;5415733;26;20889;-91
2024/04/15 04:33:42;;;;;;;8.10;1.83;;;8.10;99.90;;;;;;5447733;26;20011;-91
2024/04/15 04:36:08;;;;;;;4.70;1.30;;;8.10;99.90;;;;;;5423096;26;20531;-91
2024/04/15 04:38:34;;;;;;;8.02;1.70;;;8.00;99.90;;;;;;5446042;26;20015;-91
2024/04/15 04:41:01;;;;;;;3.88;1.10;;;8.10;99.90;;;;;;5473209;26;20477;-91
2024/04/15 04:43:27;;;;;;;5.43;1.75;;;8.00;99.90;;;;;;5423724;26;20105;-90
2024/04/15 04:45:53;;;;;;;6.43;1.80;;;8.00;99.90;;;;;;5447948;26;20007;-91
2024/04/15 04:48:19;;;;;;;2.88;1.20;;;8.10;99.90;;;;;;5415904;26;20241;-90
2024/04/15 04:50:46;;;;;;;7.03;1.75;;;8.10;99.90;;;;;;5415978;26;20022;-91
2024/04/15 04:53:12;;;;;;;6.30;1.10;;;8.10;99.90;;;;;;5430067;26;20015;-91
2024/04/15 04:55:38;;;;;;;13.73;1.58;;;8.10;99.90;;;;;;5428889;26;20007;-91
2024/04/15 04:58:04;;;;;;;1.20;0.75;;;8.10;99.90;;;;;;5471397;26;20026;-91
2024/04/15 05:00:30;;;;;;;3.42;1.55;;;8.00;99.90;;;;;;5446279;26;20371;-91
2024/04/15 05:02:56;;;;;;;12.65;4.40;;;8.00;99.90;;;;;;5474046;26;20003;-90
2024/04/15 05:05:21;;;;;;;4.53;1.33;;;8.10;99.90;;;;;;5448141;26;20017;-91
2024/04/15 05:07:47;;;;;;;5.43;1.50;;;8.10;99.90;;;;;;5447693;26;20003;-90
2024/04/15 05:10:14;;;;;;;4.30;1.42;;;8.10;99.90;;;;;;5415594;26;20006;-91
2024/04/15 05:12:40;;;;;;;5.95;1.90;;;8.00;99.90;;;;;;5447789;26;20022;-91
2024/04/15 05:15:07;;;;;;;4.93;1.60;;;8.00;99.90;;;;;;5426366;26;20002;-91
2024/04/15 05:17:34;;;;;;;5.63;1.80;;;8.00;99.90;;;;;;5393144;26;20025;-91
2024/04/15 05:19:59;;;;;;;6.47;1.77;;;8.00;99.90;;;;;;5435460;26;20069;-91
2024/04/15 05:22:25;;;;;;;7.10;2.25;;;8.00;99.90;;;;;;5447046;26;20019;-92
2024/04/15 05:24:56;;;;;;;4.38;1.52;;;8.00;99.90;;;;;;5447668;26;20010;-91
2024/04/15 05:27:22;;;;;;;9.05;2.00;;;8.00;99.90;;;;;;5415388;26;20011;-91
2024/04/15 05:29:47;;;;;;;7.57;2.38;;;8.00;99.90;;;;;;5422992;26;19999;-92
2024/04/15 05:32:14;;;;;;;7.63;2.25;;;8.00;99.90;;;;;;5415750;26;20039;-90
2024/04/15 05:34:40;;;;;;;5.72;2.08;;;8.00;99.90;;;;;;5447489;26;20003;-92
2024/04/15 05:37:05;;;;;;;9.68;2.28;;;8.00;99.90;;;;;;5419642;26;20011;-91
2024/04/15 05:39:31;;;;;;;6.95;2.75;;;8.00;99.90;;;;;;5384563;26;20018;-92
2024/04/15 05:41:57;;;;;;;10.02;2.47;;;7.90;99.90;;;;;;5475356;26;20031;-92
2024/04/15 05:44:23;;;;;;;7.78;2.00;;;7.90;99.90;;;;;;5437537;26;20076;-93
2024/04/15 05:46:50;;;;;;;5.93;1.73;;;8.00;99.90;;;;;;5447038;26;20011;-92
2024/04/15 05:49:16;;;;;;;6.28;2.13;;;8.00;99.90;;;;;;5435608;26;20007;-91
2024/04/15 05:51:43;;;;;;;10.00;2.10;;;8.10;99.90;;;;;;5429671;26;20007;-93
2024/04/15 05:54:09;;;;;;;7.10;1.95;;;8.10;99.90;;;;;;5447274;26;20102;-92
2024/04/15 05:56:35;;;;;;;3.67;1.23;;;8.10;99.90;;;;;;5422516;26;20007;-91
2024/04/15 05:59:01;;;;;;;9.65;3.05;;;8.20;99.90;;;;;;5446063;26;20771;-92
2024/04/15 06:01:26;;;;;;;9.38;2.05;;;8.20;99.90;;;;;;5415310;26;20485;-92
2024/04/15 06:03:52;;;;;;;8.15;1.92;;;8.30;99.90;;;;;;5414402;26;20003;-92
2024/04/15 06:06:18;;;;;;;6.88;2.50;;;8.30;99.90;;;;;;5418980;26;20096;-91
2024/04/15 06:08:44;;;;;;;9.20;2.05;;;8.40;99.90;;;;;;5434568;26;20400;-91
2024/04/15 06:11:09;;;;;;;7.05;2.38;;;8.50;99.90;;;;;;5414242;26;20025;-92
2024/04/15 06:13:35;;;;;;;10.60;2.70;;;8.50;99.90;;;;;;5423546;26;20046;-92
2024/04/15 06:16:01;;;;;;;6.63;1.83;;;8.60;99.90;;;;;;5428626;26;20365;-91
2024/04/15 06:18:27;;;;;;;10.98;2.33;;;8.70;99.90;;;;;;5414457;26;20003;-92
2024/04/15 06:20:52;;;;;;;8.70;2.85;;;8.70;99.90;;;;;;5412516;26;20003;-93
2024/04/15 06:23:18;;;;;;;12.93;2.17;;;8.70;99.90;;;;;;5411932;26;20006;-92
2024/04/15 06:25:53;;;;;;;6.70;1.92;;;8.80;99.90;;;;;;5415294;26;20018;-91
2024/04/15 06:28:18;;;;;;;6.55;2.03;;;8.80;99.90;;;;;;5422708;26;20018;-92
2024/04/15 06:30:45;;;;;;;7.53;2.38;;;8.80;99.90;;;;;;5416714;26;20368;-93
2024/04/15 06:33:12;;;;;;;15.68;3.92;;;8.80;99.90;;;;;;5446996;26;20494;-93
2024/04/15 06:35:37;;;;;;;10.05;3.50;;;8.90;99.90;;;;;;5415033;26;20017;-92
2024/04/15 06:38:03;;;;;;;9.82;2.47;;;8.90;99.90;;;;;;5474697;26;20007;-92
2024/04/15 06:40:30;;;;;;;6.55;2.28;;;8.90;99.90;;;;;;5415631;26;20084;-92
2024/04/15 06:42:56;;;;;;;5.60;1.65;;;8.90;99.90;;;;;;5419769;26;20002;-91
2024/04/15 06:45:22;;;;;;;12.57;2.72;;;9.00;99.90;;;;;;5422124;26;20007;-91
2024/04/15 06:47:50;;;;;;;4.57;1.83;;;9.00;99.90;;;;;;5413147;26;20008;-92
2024/04/15 06:50:16;;;;;;;6.72;1.92;;;9.10;99.90;;;;;;5429904;26;20060;-91
2024/04/15 06:52:42;;;;;;;4.97;1.65;;;9.10;99.90;;;;;;5415355;26;20013;-91
2024/04/15 06:55:07;;;;;;;8.05;3.15;;;9.10;99.90;;;;;;5474190;26;20018;-91
2024/04/15 06:57:33;;;;;;;7.95;2.47;;;9.20;99.90;;;;;;5427313;26;20480;-90
2024/04/15 07:00:00;;;;;;;8.68;2.75;;;9.30;99.90;;;;;;5446197;26;20586;-92
2024/04/15 07:02:25;;;;;;;3.55;1.35;;;9.40;99.90;;;;;;5414147;26;20015;-91
2024/04/15 07:04:52;;;;;;;7.43;2.17;;;9.60;99.90;;;;;;5414431;26;20042;-91
2024/04/15 07:07:27;;;;;;;9.93;2.85;;;9.60;99.90;;;;;;5446016;26;20002;-91
2024/04/15 07:09:53;;;;;;;6.43;2.00;;;9.60;99.90;;;;;;5445687;26;20017;-91
2024/04/15 07:12:18;;;;;;;8.38;2.28;;;9.60;99.90;;;;;;5421645;26;20003;-91
2024/04/15 07:14:45;;;;;;;10.80;2.75;;;9.60;99.90;;;;;;5414346;26;20020;-91
2024/04/15 07:17:11;;;;;;;4.25;1.33;;;9.60;99.90;;;;;;5413329;26;21634;-92
2024/04/15 07:19:36;;;;;;;10.13;2.35;;;9.60;99.90;;;;;;5415478;26;20017;-91
2024/04/15 07:22:02;;;;;;;5.85;2.08;;;9.60;99.90;;;;;;5474299;26;20003;-91
2024/04/15 07:24:29;;;;;;;8.88;2.25;;;9.60;99.90;;;;;;5421239;26;20018;-92
2024/04/15 07:26:56;;;;;;;8.02;2.35;;;9.60;99.90;;;;;;5415426;26;20003;-91
2024/04/15 07:29:21;;;;;;;14.43;3.50;;;9.60;99.90;;;;;;5422332;26;20011;-92
2024/04/15 07:31:47;;;;;;;4.18;1.65;;;9.70;99.90;;;;;;5445829;26;20007;-91
2024/04/15 07:34:14;;;;;;;6.80;2.20;;;9.80;99.90;;;;;;5417838;26;20544;-92
2024/04/15 07:36:39;;;;;;;7.55;2.67;;;10.00;99.90;;;;;;5445612;26;20003;-92
2024/04/15 07:39:05;;;;;;;7.45;1.55;;;10.20;99.90;;;;;;5416322;26;20002;-91
2024/04/15 07:41:31;;;;;;;6.45;2.67;;;10.40;99.90;;;;;;5444780;26;20018;-91
2024/04/15 07:43:57;;;;;;;7.05;1.90;;;10.40;99.90;;;;;;5438007;26;20006;-91
2024/04/15 07:46:23;;;;;;;9.43;2.40;;;10.40;99.90;;;;;;5426898;26;20018;-92
2024/04/15 07:48:49;;;;;;;15.40;2.55;;;10.40;99.90;;;;;;5445767;26;20080;-91
2024/04/15 07:51:14;;;;;;;6.22;2.08;;;10.30;99.90;;;;;;5416530;26;20665;-92
2024/04/15 07:53:40;;;;;;;6.53;2.45;;;10.30;99.90;;;;;;5445456;26;20036;-92
2024/04/15 07:56:06;;;;;;;8.02;2.10;;;10.40;99.90;;;;;;5445579;26;20019;-91
2024/04/15 07:58:34;;;;;;;5.50;2.35;;;10.40;99.90;;;;;;5432180;26;20416;-92
2024/04/15 08:01:00;;;;;;;11.48;3.97;;;10.40;99.90;;;;;;5445279;26;20022;-91
2024/04/15 08:03:25;;;;;;;11.77;3.45;;;10.50;99.90;;;;;;5474498;26;20010;-91
2024/04/15 08:05:51;;;;;;;8.98;4.15;;;10.50;99.90;;;;;;5426493;26;20015;-91
2024/04/15 08:08:17;;;;;;;7.35;3.42;;;10.50;99.90;;;;;;5475472;26;20441;-92
2024/04/15 08:10:43;;;;;;;14.95;3.83;;;10.60;99.90;;;;;;5447808;26;20361;-92
2024/04/15 08:13:08;;;;;;;12.13;4.35;;;10.60;99.90;;;;;;5449051;26;20474;-91
2024/04/15 08:15:34;;;;;;;14.60;4.50;;;10.50;99.90;;;;;;5428176;26;20014;-92
2024/04/15 08:18:00;;;;;;;15.02;5.20;;;10.50;99.90;;;;;;5409974;26;20008;-92
2024/04/15 08:20:26;;;;;;;10.85;2.78;;;10.50;99.90;;;;;;5441376;26;20017;-91
2024/04/15 08:22:52;;;;;;;7.38;2.33;;;10.60;99.90;;;;;;5440683;26;20017;-91
2024/04/15 08:25:18;;;;;;;14.13;3.83;;;10.50;99.90;;;;;;5422909;26;20007;-91
2024/04/15 08:27:44;;;;;;;11.65;3.00;;;10.50;99.90;;;;;;5434777;26;20040;-91
2024/04/15 08:30:10;;;;;;;8.93;3.63;;;10.50;99.90;;;;;;5440681;26;20018;-91
2024/04/15 08:32:36;;;;;;;7.63;3.20;;;10.50;99.90;;;;;;5446071;26;20011;-92
2024/04/15 08:35:02;;;;;;;13.55;4.22;;;10.50;99.90;;;;;;5477166;26;20375;-92
2024/04/15 08:37:28;;;;;;;8.23;3.22;;;10.50;99.90;;;;;;5448196;26;20011;-91
2024/04/15 08:39:54;;;;;;;6.90;3.28;;;10.50;99.90;;;;;;5416944;26;20485;-91
2024/04/15 08:42:28;;;;;;;9.35;2.97;;;10.70;99.90;;;;;;5421361;26;20007;-91
2024/04/15 08:44:55;;;;;;;7.43;2.30;;;10.80;99.90;;;;;;5416905;26;20002;-92
2024/04/15 08:47:29;;;;;;;8.52;3.40;;;10.80;99.90;;;;;;5446534;26;20014;-93
2024/04/15 08:49:58;;;;;;;7.07;3.08;;;10.90;99.90;;;;;;5425094;26;20026;-93
2024/04/15 08:52:24;;;;;;;8.57;2.35;;;11.00;99.90;;;;;;5404907;26;20015;-93
2024/04/15 08:54:50;;;;;;;10.27;3.15;;;11.00;99.90;;;;;;5433678;26;20015;-91
2024/04/15 08:57:17;;;;;;;11.32;2.92;;;11.10;99.90;;;;;;5415983;26;20092;-92
2024/04/15 08:59:44;;;;;;;5.80;2.15;;;11.10;99.90;;;;;;5416123;26;20007;-92
2024/04/15 09:02:16;;;;;;;6.57;1.95;;;11.30;99.90;;;;;;5439277;26;20002;-92
2024/04/15 09:04:42;;;;;;;11.87;5.23;;;11.50;99.90;;;;;;5433714;26;20474;-92
2024/04/15 09:07:08;;;;;;;12.00;4.50;;;11.60;99.90;;;;;;5447534;26;20396;-92
2024/04/15 09:09:34;;;;;;;5.85;2.05;;;11.70;99.90;;;;;;5415855;26;20473;-91
2024/04/15 09:12:00;;;;;;;6.45;1.50;;;11.70;99.90;;;;;;5446658;26;20014;-90
2024/04/15 09:14:26;;;;;;;3.90;1.35;;;11.70;99.90;;;;;;5446912;26;20002;-91
2024/04/15 09:16:53;;;;;;;8.73;1.60;;;11.80;99.90;;;;;;5415795;26;20019;-92
2024/04/15 09:19:18;;;;;;;5.53;2.03;;;11.90;99.90;;;;;;5418516;26;20003;-92
2024/04/15 09:21:44;;;;;;;12.43;4.15;;;11.90;99.90;;;;;;5447461;26;20457;-93
2024/04/15 09:24:10;;;;;;;11.10;3.80;;;12.00;99.90;;;;;;5443519;26;20003;-92
2024/04/15 09:26:36;;;;;;;5.95;1.52;;;12.00;99.90;;;;;;5425997;26;20553;-91
2024/04/15 09:29:02;;;;;;;5.00;2.05;;;12.00;99.90;;;;;;5434528;26;20029;-92
2024/04/15 09:31:28;;;;;;;7.10;1.65;;;11.90;99.90;;;;;;5425885;26;20002;-92
2024/04/15 09:33:55;;;;;;;2.30;0.90;;;11.90;99.90;;;;;;5419828;26;20359;-92
2024/04/15 09:36:21;;;;;;;6.05;1.60;;;11.90;99.90;;;;;;5415167;26;19999;-92
2024/04/15 09:38:49;;;;;;;3.45;1.08;;;11.80;99.90;;;;;;5446185;26;20021;-92
2024/04/15 09:41:15;;;;;;;5.38;1.77;;;11.90;99.90;;;;;;5444725;26;20010;-91
2024/04/15 09:43:44;;;;;;;6.70;1.75;;;11.80;99.40;;;;;;5445603;26;20034;-92
2024/04/15 09:46:12;;;;;;;5.55;1.63;;;11.70;99.90;;;;;;5412967;26;20010;-92
2024/04/15 09:48:39;;;;;;;7.53;1.65;;;11.80;99.90;;;;;;5443874;26;20006;-92
2024/04/15 09:51:09;;;;;;;9.68;3.03;;;11.80;99.90;;;;;;5410691;26;20003;-92
2024/04/15 09:53:41;;;;;;;8.25;2.05;;;12.00;99.90;;;;;;5444448;26;20007;-92
2024/04/15 09:56:23;;;;;;;2.92;1.13;;;11.90;99.30;;;;;;5413110;26;20018;-91
2024/04/15 09:58:55;;;;;;;9.75;3.28;;;12.00;99.50;;;;;;5413759;26;20040;-92
2024/04/15 10:01:25;;;;;;;4.15;1.23;;;12.10;99.10;;;;;;5418372;26;20527;-92
2024/04/15 10:03:53;;;;;;;6.38;1.17;;;12.10;97.50;;;;;;5425418;26;20011;-91
2024/04/15 10:06:45;;;;;;;4.05;1.27;;;12.00;96.50;;;;;;5416177;26;20057;-92
2024/04/15 10:09:11;;;;;;;3.13;1.05;;;12.00;96.60;;;;;;5422787;26;20006;-91
2024/04/15 10:11:38;;;;;;;3.00;0.88;;;11.90;95.70;;;;;;5430541;26;20920;-92
2024/04/15 10:14:04;;;;;;;3.05;0.82;;;11.80;93.10;;;;;;5409816;26;20004;-93
2024/04/15 10:16:34;;;;;;;4.65;1.08;;;11.80;93.80;;;;;;5415168;26;20017;-92
2024/04/15 10:19:00;;;;;;;6.53;2.13;;;11.80;94.40;;;;;;5412049;26;20019;-92
2024/04/15 10:21:26;;;;;;;6.60;1.58;;;11.80;94.30;;;;;;5443235;26;20002;-92
2024/04/15 10:23:54;;;;;;;3.75;1.00;;;11.80;93.90;;;;;;5392543;26;20002;-92
2024/04/15 10:26:22;;;;;;;3.20;1.05;;;11.90;92.80;;;;;;5415020;26;20007;-91
2024/04/15 10:28:48;;;;;;;0.57;0.43;;;11.90;92.90;;;;;;5418376;26;20006;-90
2024/04/15 10:31:14;;;;;;;4.15;1.92;;;12.10;94.80;;;;;;5419328;26;20026;-90
2024/04/15 10:33:51;;;;;;;6.55;1.70;;;12.20;94.30;;;;;;5413718;26;20011;-90
2024/04/15 10:36:17;;;;;;;8.13;1.88;;;12.30;92.80;;;;;;5446614;26;20003;-90
2024/04/15 10:38:50;;;;;;;3.60;1.20;;;12.30;93.40;;;;;;5445822;26;20035;-90
2024/04/15 10:41:21;;;;;;;8.85;2.90;;;12.40;92.90;;;;;;5442521;26;20010;-90
2024/04/15 10:43:50;;;;;;;4.80;1.48;;;12.40;92.40;;;;;;5446691;26;20015;-89
2024/04/15 10:46:17;;;;;;;3.15;1.38;;;12.30;91.40;;;;;;5423173;26;20003;-90
2024/04/15 10:48:43;;;;;;;6.38;2.13;;;12.40;92.70;;;;;;5416125;26;20007;-90
2024/04/15 10:51:10;;;;;;;6.30;1.85;;;12.60;92.70;;;;;;5429917;26;20007;-89
2024/04/15 10:53:36;;;;;;;5.75;2.15;;;12.50;92.20;;;;;;5427894;26;20432;-90
2024/04/15 10:56:03;;;;;;;3.88;1.83;;;12.50;92.00;;;;;;5414716;26;20046;-90
2024/04/15 10:58:29;;;;;;;9.63;3.08;;;12.40;90.90;;;;;;5419593;26;20022;-90
2024/04/15 11:00:55;;;;;;;3.17;1.55;;;12.40;90.70;;;;;;5415596;26;20003;-89
2024/04/15 11:03:24;;;;;;;3.97;1.52;;;12.40;90.60;;;;;;5414602;26;20044;-89
2024/04/15 11:05:49;;;;;;;3.78;1.40;;;12.20;90.90;;;;;;5428027;26;20007;-90
2024/04/15 11:08:16;;;;;;;6.85;2.20;;;12.10;91.10;;;;;;5414210;26;20327;-90
2024/04/15 11:10:42;;;;;;;6.85;2.22;;;12.00;90.70;;;;;;5418153;26;20007;-90
2024/04/15 11:13:11;;;;;;;4.85;1.83;;;12.00;90.80;;;;;;5445496;26;20042;-90
2024/04/15 11:15:39;;;;;;;4.65;2.20;;;11.90;90.60;;;;;;5424666;26;20043;-90
2024/04/15 11:18:13;;;;;;;5.43;1.95;;;11.90;91.60;;;;;;5438781;26;20478;-90
2024/04/15 11:20:39;;;;;;;8.20;2.95;;;11.90;91.90;;;;;;5416708;26;20014;-90
2024/04/15 11:23:06;;;;;;;8.18;3.03;;;11.80;92.20;;;;;;5446154;26;20045;-90
2024/04/15 11:25:33;;;;;;;2.65;1.30;;;11.80;93.10;;;;;;5412968;26;20019;-89
2024/04/15 11:28:00;;;;;;;4.43;1.60;;;11.80;92.80;;;;;;5415536;26;20535;-90
2024/04/15 11:30:27;;;;;;;6.65;1.98;;;11.80;93.50;;;;;;5445093;26;20071;-90
2024/04/15 11:32:53;;;;;;;6.60;2.35;;;11.80;94.60;;;;;;5415255;26;20003;-90
2024/04/15 11:35:20;;;;;;;8.73;3.28;;;11.70;94.20;;;;;;5382143;26;20011;-90
2024/04/15 11:38:01;;;;;;;2.60;1.05;;;11.70;94.70;;;;;;5443494;26;20458;-91
2024/04/15 11:40:29;;;;;;;6.28;1.77;;;11.70;94.40;;;;;;5412411;26;20015;-90
2024/04/15 11:42:57;;;;;;;4.03;1.98;;;11.50;96.10;;;;;;5443918;26;20010;-90
2024/04/15 11:45:22;;;;;;;1.73;0.90;;;11.40;96.90;;;;;;5442902;26;20701;-90
2024/04/15 11:47:52;;;;;;;3.30;1.15;;;11.30;97.30;;;;;;5412003;26;20080;-91
2024/04/15 11:50:19;;;;;;;5.40;1.23;;;11.20;98.20;;;;;;5443778;26;20469;-90
2024/04/15 11:52:45;;;;;;;4.15;1.40;;;11.10;99.50;;;;;;5444396;26;20426;-90
2024/04/15 11:55:18;;;;;;;4.60;1.20;;;10.90;99.90;;;;;;5445161;26;20345;-89
2024/04/15 11:57:44;;;;;;;4.78;1.45;;;10.90;99.90;;;;;;5431617;26;20014;-90
2024/04/15 12:00:11;;;;;;;3.50;1.17;;;11.00;99.90;;;;;;5443392;26;20003;-90
2024/04/15 12:02:41;;;;;;;4.28;1.13;;;11.10;99.90;;;;;;5410319;26;20021;-89
2024/04/15 12:05:07;;;;;;;4.28;1.30;;;11.20;99.90;;;;;;5420741;26;20357;-90
2024/04/15 12:07:33;;;;;;;5.07;2.00;;;11.30;99.90;;;;;;5442893;26;20017;-90
2024/04/15 12:10:05;;;;;;;4.82;1.30;;;11.30;99.90;;;;;;5407518;26;20003;-89
2024/04/15 12:12:30;;;;;;;9.05;1.67;;;11.30;99.90;;;;;;5409702;26;20083;-90
2024/04/15 12:14:56;;;;;;;11.68;3.22;;;11.30;99.90;;;;;;5412092;26;20011;-90
2024/04/15 12:17:22;;;;;;;11.00;3.53;;;11.30;99.90;;;;;;5421057;26;20026;-89
2024/04/15 12:19:48;;;;;;;3.92;1.30;;;11.30;99.90;;;;;;5443868;26;20006;-90
2024/04/15 12:22:14;;;;;;;3.45;1.00;;;11.10;99.90;;;;;;5412125;26;20408;-89
2024/04/15 12:24:39;;;;;;;5.72;1.27;;;10.90;99.90;;;;;;5420060;26;20021;-90
2024/04/15 12:27:05;;;;;;;4.88;0.90;;;10.60;99.90;;;;;;5415181;26;20388;-89
2024/04/15 12:29:31;;;;;;;2.95;0.88;;;10.30;99.90;;;;;;5413390;26;20085;-90
2024/04/15 12:31:57;;;;;;;3.92;1.13;;;10.00;99.90;;;;;;5429099;26;20125;-89
2024/04/15 12:34:23;;;;;;;4.82;1.10;;;9.80;99.90;;;;;;5420448;26;20017;-89
2024/04/15 12:36:49;;;;;;;3.05;0.57;;;9.60;99.90;;;;;;5412398;26;20022;-89
2024/04/15 12:39:15;;;;;;;2.63;0.75;;;9.50;99.90;;;;;;5426572;26;20018;-89
2024/04/15 12:41:43;;;;;;;5.10;1.00;;;9.40;99.90;;;;;;5444310;26;20038;-90
2024/04/15 12:44:09;;;;;;;3.80;0.98;;;9.30;99.90;;;;;;5444451;26;20011;-89
2024/04/15 12:46:35;;;;;;;5.20;1.73;;;9.40;99.90;;;;;;5420009;26;20014;-89
2024/04/15 12:49:01;;;;;;;9.75;1.77;;;9.40;99.90;;;;;;5427661;26;20003;-90